Asahimaru No18 — JI3661 — position and weather

sailwx.info

Track history (hours):
 
Tides and Currents Weather Stations Pressure Air Temp Water Temp Dewpoint Dewpoint Depression Visibility Wind Speed Wind Dir Waves Ship Positions

Asahimaru No18

Last reported at 2017-Oct-14 20:14 UTC. Time now 2017-Oct-17 22:36 UTC.
Position N 35°23' E 139°46'.

Length 62 m.

Type: Cargo ship. MMSI: 431301419.

Date/timePositionNaut miles runAvg speedWind from/ knotsBaromVisibWave heightAir tempDewpointWater temp
2017-Oct-14 20:14N 35°23' E 139°46'13 9.0
2017-Oct-14 18:47N 35°10' E 139°46'3 9.8
2017-Oct-14 18:30N 35°08' E 139°45'  
2017-Oct-12 09:04N 34°33' E 135°17'111.2
2017-Oct-12 08:57N 34°34' E 135°16'510.9
2017-Oct-12 08:30N 34°34' E 135°10'1 0.0
2017-Oct-10 11:13N 34°36' E 135°10'311.7
2017-Oct-10 10:57N 34°36' E 135°14'711.6
2017-Oct-10 10:21N 34°38' E 135°22'1 0.0
2017-Oct-09 17:40N 34°37' E 135°22'410.2
2017-Oct-09 17:18N 34°36' E 135°18'310.7
2017-Oct-09 17:00N 34°35' E 135°14'  
Track history (hours):
 
Tides and Currents Weather Stations Pressure Air Temp Water Temp Dewpoint Dewpoint Depression Visibility Wind Speed Wind Dir Waves Ship Positions

Asahimaru No18

Last reported at 2017-Oct-14 20:14 UTC. Time now 2017-Oct-17 22:36 UTC.
Position N 35°23' E 139°46'.

Length 62 m.

Type: Cargo ship. MMSI: 431301419.

Date/timePositionNaut miles runAvg speedWind from/ knotsBaromVisibWave heightAir tempDewpointWater temp
2017-Oct-14 20:14N 35°23' E 139°46'13 9.0
2017-Oct-14 18:47N 35°10' E 139°46'3 9.8
2017-Oct-14 18:30N 35°08' E 139°45'  
2017-Oct-12 09:04N 34°33' E 135°17'111.2
2017-Oct-12 08:57N 34°34' E 135°16'510.9
2017-Oct-12 08:30N 34°34' E 135°10'1 0.0
2017-Oct-10 11:13N 34°36' E 135°10'311.7
2017-Oct-10 10:57N 34°36' E 135°14'711.6
2017-Oct-10 10:21N 34°38' E 135°22'1 0.0
2017-Oct-09 17:40N 34°37' E 135°22'410.2
2017-Oct-09 17:18N 34°36' E 135°18'310.7
2017-Oct-09 17:00N 34°35' E 135°14'  

Dump ship's entire track history